地図

経路データ

SID SEASON NUMBER BASIN SUBBASIN NAME ISO_TIME NATURE LAT LON WMO_WIND WMO_PRES WMO_AGENCY TRACK_TYPE DIST2LAND LANDFALL IFLAG USA_AGENCY USA_ATCF_ID USA_LAT USA_LON USA_RECORD USA_STATUS USA_WIND USA_PRES USA_SSHS USA_R34_NE USA_R34_SE USA_R34_SW USA_R34_NW USA_R50_NE USA_R50_SE USA_R50_SW USA_R50_NW USA_R64_NE USA_R64_SE USA_R64_SW USA_R64_NW USA_POCI USA_ROCI USA_RMW USA_EYE TOKYO_LAT TOKYO_LON TOKYO_GRADE TOKYO_WIND TOKYO_PRES TOKYO_R50_DIR TOKYO_R50_LONG TOKYO_R50_SHORT TOKYO_R30_DIR TOKYO_R30_LONG TOKYO_R30_SHORT TOKYO_LAND CMA_LAT CMA_LON CMA_CAT CMA_WIND CMA_PRES HKO_LAT HKO_LON HKO_CAT HKO_WIND HKO_PRES NEWDELHI_LAT NEWDELHI_LON NEWDELHI_GRADE NEWDELHI_WIND NEWDELHI_PRES NEWDELHI_CI NEWDELHI_DP NEWDELHI_POCI REUNION_LAT REUNION_LON REUNION_TYPE REUNION_WIND REUNION_PRES REUNION_TNUM REUNION_CI REUNION_RMW REUNION_R34_NE REUNION_R34_SE REUNION_R34_SW REUNION_R34_NW REUNION_R50_NE REUNION_R50_SE REUNION_R50_SW REUNION_R50_NW REUNION_R64_NE REUNION_R64_SE REUNION_R64_SW REUNION_R64_NW BOM_LAT BOM_LON BOM_TYPE BOM_WIND BOM_PRES BOM_TNUM BOM_CI BOM_RMW BOM_R34_NE BOM_R34_SE BOM_R34_SW BOM_R34_NW BOM_R50_NE BOM_R50_SE BOM_R50_SW BOM_R50_NW BOM_R64_NE BOM_R64_SE BOM_R64_SW BOM_R64_NW BOM_ROCI BOM_POCI BOM_EYE BOM_POS_METHOD BOM_PRES_METHOD NADI_LAT NADI_LON NADI_CAT NADI_WIND NADI_PRES WELLINGTON_LAT WELLINGTON_LON WELLINGTON_WIND WELLINGTON_PRES DS824_LAT DS824_LON DS824_STAGE DS824_WIND DS824_PRES TD9636_LAT TD9636_LON TD9636_STAGE TD9636_WIND TD9636_PRES TD9635_LAT TD9635_LON TD9635_WIND TD9635_PRES TD9635_ROCI NEUMANN_LAT NEUMANN_LON NEUMANN_CLASS NEUMANN_WIND NEUMANN_PRES MLC_LAT MLC_LON MLC_CLASS MLC_WIND MLC_PRES USA_GUST BOM_GUST BOM_GUST_PER REUNION_GUST REUNION_GUST_PER USA_SEAHGT USA_SEARAD_NE USA_SEARAD_SE USA_SEARAD_SW USA_SEARAD_NW STORM_SPEED STORM_DIR
1897021S13070 1897 4 SI MM NOT_NAMED 1897-01-21 06:00:00 NR -12.6000 70.2000 spur-split 1575 1532 __________O___ -1 -12.6000 70.2000 7 9 207
1897021S13070 1897 4 SI MM NOT_NAMED 1897-01-21 09:00:00 NR -13.0095 69.9864 spur-split 1532 1489 __________P___ -1 -13.0095 69.9864 7 9 207
1897021S13070 1897 4 SI MM NOT_NAMED 1897-01-21 12:00:00 NR -13.4152 69.7780 spur-split 1489 1448 __________P___ -1 -13.4152 69.7780 7 9 206
1897021S13070 1897 4 SI MM NOT_NAMED 1897-01-21 15:00:00 NR -13.8132 69.5805 spur-split 1448 1407 __________P___ -1 -13.8132 69.5805 7 9 205
1897021S13070 1897 4 SI MM NOT_NAMED 1897-01-21 18:00:00 NR -14.2000 69.4000 spur-split 1407 1375 __________O___ -1 -14.2000 69.4000 7 8 203
1897021S13070 1897 4 SI MM NOT_NAMED 1897-01-21 21:00:00 NR -14.5756 69.2429 spur-split 1366 1340 __________P___ -1 -14.5756 69.2429 7 8 200
1897021S13070 1897 4 SI MM NOT_NAMED 1897-01-22 00:00:00 NR -14.9550 69.1177 spur-split 1335 1310 __________P___ -1 -14.9550 69.1177 7 8 194
1897021S13070 1897 4 SI MM NOT_NAMED 1897-01-22 03:00:00 NR -15.3569 69.0337 spur-split 1305 1286 __________P___ -1 -15.3569 69.0337 7 9 187
1897021S13070 1897 4 SI MM NOT_NAMED 1897-01-22 06:00:00 NR -15.8000 69.0000 spur-split 1286 1263 __________O___ -1 -15.8000 69.0000 7 10 0
1897021S13070 1897 4 SI MM NOT_NAMED 1897-01-22 09:00:00 NR -16.3271 69.0122 spur-split 1263 1247 __________P___ -1 -16.3271 69.0122 7 11 177
1897021S13070 1897 4 SI MM NOT_NAMED 1897-01-22 12:00:00 NR -16.8925 69.0747 spur-split 1249 1235 __________P___ -1 -16.8925 69.0747 7 12 172
1897021S13070 1897 4 SI MM NOT_NAMED 1897-01-22 15:00:00 NR -17.4615 69.1748 spur-split 1239 1230 __________P___ -1 -17.4615 69.1748 7 11 169
1897021S13070 1897 4 SI MM NOT_NAMED 1897-01-22 18:00:00 NR -18.0000 69.3000 spur-split 1234 1229 __________O___ -1 -18.0000 69.3000 7 10 167
1897021S13070 1897 4 SI MM NOT_NAMED 1897-01-22 21:00:00 NR -18.4486 69.4127 spur-split 1235 1230 __________P___ -1 -18.4486 69.4127 7 9 165
1897021S13070 1897 4 SI MM NOT_NAMED 1897-01-23 00:00:00 NR -18.8648 69.5483 spur-split 1235 1235 __________P___ -1 -18.8648 69.5483 7 9 161
1897021S13070 1897 4 SI MM NOT_NAMED 1897-01-23 03:00:00 NR -19.2736 69.7097 spur-split 1249 1248 __________P___ -1 -19.2736 69.7097 7 9 158
1897021S13070 1897 4 SI MM NOT_NAMED 1897-01-23 06:00:00 NR -19.7000 69.9000 spur-split 1265 1264 __________O___ -1 -19.7000 69.9000 7 10 157
1897021S13070 1897 4 SI MM NOT_NAMED 1897-01-23 09:00:00 NR -20.1865 70.1132 spur-split 1282 1282 __________P___ -1 -20.1865 70.1132 7 11 157
1897021S13070 1897 4 SI MM NOT_NAMED 1897-01-23 12:00:00 NR -20.6925 70.3551 spur-split 1312 1312 __________P___ -1 -20.6925 70.3551 7 11 155
1897021S13070 1897 4 SI MM NOT_NAMED 1897-01-23 15:00:00 NR -21.2021 70.6196 spur-split 1334 1334 __________P___ -1 -21.2021 70.6196 7 11 153
1897021S13070 1897 4 SI MM NOT_NAMED 1897-01-23 18:00:00 NR -21.7000 70.9000 spur-split 1368 1368 __________O___ -1 -21.7000 70.9000 7 11 151
1897021S13070 1897 4 SI MM NOT_NAMED 1897-01-23 21:00:00 NR -22.1742 71.1906 spur-split 1404 1404 __________P___ -1 -22.1742 71.1906 7 11 150
1897021S13070 1897 4 SI MM NOT_NAMED 1897-01-24 00:00:00 NR -22.6279 71.4887 spur-split 1440 1440 __________P___ -1 -22.6279 71.4887 7 11 148
1897021S13070 1897 4 SI MM NOT_NAMED 1897-01-24 03:00:00 NR -23.0676 71.7924 spur-split 1478 1478 __________P___ -1 -23.0676 71.7924 7 10 147
1897021S13070 1897 4 SI MM NOT_NAMED 1897-01-24 06:00:00 NR -23.5000 72.1000 spur-split 1516 __________O___ -1 -23.5000 72.1000 7 10 147

IBTrACS Databaseについて

本データベースは、米国NOAAが公開する1842年以降の世界の熱帯低気圧のベストトラックデータアーカイブInternational Best Track Archive for Climate Stewardship (IBTrACS)を、ウェブで閲覧しやすい形式に変換したものです。

最終更新日:2021-11-26